sensor_id;sensor_type;location;lat;lon;timestamp;pressure;altitude;pressure_sealevel;temperature;humidity
57791;BME280;43621;51.798;21.588;2023-04-25T00:01:40;98728.53;;;14.84;49.25
57791;BME280;43621;51.798;21.588;2023-04-25T00:05:41;98727.94;;;14.78;49.26
57791;BME280;43621;51.798;21.588;2023-04-25T00:09:42;98723.71;;;14.74;49.70
57791;BME280;43621;51.798;21.588;2023-04-25T00:13:43;98718.44;;;14.72;49.94
57791;BME280;43621;51.798;21.588;2023-04-25T00:17:44;98711.78;;;14.70;50.12
57791;BME280;43621;51.798;21.588;2023-04-25T00:21:46;98706.70;;;14.66;50.42
57791;BME280;43621;51.798;21.588;2023-04-25T00:25:49;98698.74;;;14.62;50.42
57791;BME280;43621;51.798;21.588;2023-04-25T00:29:50;98689.52;;;14.57;50.57
57791;BME280;43621;51.798;21.588;2023-04-25T00:33:51;98686.70;;;14.51;50.69
57791;BME280;43621;51.798;21.588;2023-04-25T00:37:54;98686.27;;;14.45;50.88
57791;BME280;43621;51.798;21.588;2023-04-25T00:41:56;98680.89;;;14.39;50.96
57791;BME280;43621;51.798;21.588;2023-04-25T00:46:00;98670.56;;;14.29;51.02
57791;BME280;43621;51.798;21.588;2023-04-25T00:50:01;98668.55;;;14.19;51.14
57791;BME280;43621;51.798;21.588;2023-04-25T00:54:02;98667.86;;;14.11;51.31
57791;BME280;43621;51.798;21.588;2023-04-25T00:58:04;98663.65;;;14.01;51.44
57791;BME280;43621;51.798;21.588;2023-04-25T01:02:05;98658.17;;;13.93;51.67
57791;BME280;43621;51.798;21.588;2023-04-25T01:06:09;98655.90;;;13.87;51.82
57791;BME280;43621;51.798;21.588;2023-04-25T01:10:10;98654.38;;;13.76;51.98
57791;BME280;43621;51.798;21.588;2023-04-25T01:14:11;98653.82;;;13.69;52.03
57791;BME280;43621;51.798;21.588;2023-04-25T01:18:12;98652.77;;;13.64;52.12
57791;BME280;43621;51.798;21.588;2023-04-25T01:22:14;98654.66;;;13.57;52.31
57791;BME280;43621;51.798;21.588;2023-04-25T01:26:16;98655.64;;;13.52;52.20
57791;BME280;43621;51.798;21.588;2023-04-25T01:30:17;98652.30;;;13.48;52.47
57791;BME280;43621;51.798;21.588;2023-04-25T01:34:19;98650.36;;;13.44;52.38
57791;BME280;43621;51.798;21.588;2023-04-25T01:38:23;98648.55;;;13.40;52.42
57791;BME280;43621;51.798;21.588;2023-04-25T01:42:24;98645.38;;;13.33;52.42
57791;BME280;43621;51.798;21.588;2023-04-25T01:46:26;98644.28;;;13.27;52.52
57791;BME280;43621;51.798;21.588;2023-04-25T01:50:27;98646.33;;;13.20;52.50
57791;BME280;43621;51.798;21.588;2023-04-25T01:54:28;98640.79;;;13.17;52.60
57791;BME280;43621;51.798;21.588;2023-04-25T01:58:29;98644.04;;;13.11;52.71
57791;BME280;43621;51.798;21.588;2023-04-25T02:02:30;98645.34;;;13.08;52.90
57791;BME280;43621;51.798;21.588;2023-04-25T02:06:31;98645.39;;;13.04;53.13
57791;BME280;43621;51.798;21.588;2023-04-25T02:10:33;98648.15;;;13.01;53.02
57791;BME280;43621;51.798;21.588;2023-04-25T02:14:35;98647.29;;;12.99;53.22
57791;BME280;43621;51.798;21.588;2023-04-25T02:18:36;98652.27;;;12.95;53.15
57791;BME280;43621;51.798;21.588;2023-04-25T02:22:38;98654.66;;;12.96;53.48
57791;BME280;43621;51.798;21.588;2023-04-25T02:26:39;98652.13;;;12.98;53.57
57791;BME280;43621;51.798;21.588;2023-04-25T02:30:40;98656.49;;;12.97;53.54
57791;BME280;43621;51.798;21.588;2023-04-25T02:34:41;98657.30;;;12.97;53.64
57791;BME280;43621;51.798;21.588;2023-04-25T02:38:42;98649.23;;;12.95;53.76
57791;BME280;43621;51.798;21.588;2023-04-25T02:42:43;98648.60;;;12.93;53.84
57791;BME280;43621;51.798;21.588;2023-04-25T02:46:46;98646.77;;;12.95;53.94
57791;BME280;43621;51.798;21.588;2023-04-25T02:50:47;98648.04;;;13.02;54.12
57791;BME280;43621;51.798;21.588;2023-04-25T02:54:48;98650.64;;;13.07;54.24
57791;BME280;43621;51.798;21.588;2023-04-25T02:58:49;98655.17;;;13.09;54.33
57791;BME280;43621;51.798;21.588;2023-04-25T03:02:51;98659.48;;;13.11;54.50
57791;BME280;43621;51.798;21.588;2023-04-25T03:06:52;98660.36;;;13.14;54.47
57791;BME280;43621;51.798;21.588;2023-04-25T03:10:53;98656.80;;;13.13;54.52
57791;BME280;43621;51.798;21.588;2023-04-25T03:14:56;98653.36;;;13.10;54.61
57791;BME280;43621;51.798;21.588;2023-04-25T03:18:57;98648.91;;;13.05;54.62
57791;BME280;43621;51.798;21.588;2023-04-25T03:22:58;98654.11;;;12.96;54.65
57791;BME280;43621;51.798;21.588;2023-04-25T03:26:59;98656.86;;;12.93;54.77
57791;BME280;43621;51.798;21.588;2023-04-25T03:31:01;98658.34;;;12.92;54.95
57791;BME280;43621;51.798;21.588;2023-04-25T03:35:02;98658.74;;;12.96;55.11
57791;BME280;43621;51.798;21.588;2023-04-25T03:39:04;98655.77;;;12.97;55.19
57791;BME280;43621;51.798;21.588;2023-04-25T03:43:05;98655.23;;;12.97;55.17
57791;BME280;43621;51.798;21.588;2023-04-25T03:47:06;98655.83;;;12.99;55.20
57791;BME280;43621;51.798;21.588;2023-04-25T03:51:07;98661.94;;;13.01;55.32
57791;BME280;43621;51.798;21.588;2023-04-25T03:55:09;98664.55;;;13.04;55.45
57791;BME280;43621;51.798;21.588;2023-04-25T03:59:10;98668.85;;;13.11;55.53
57791;BME280;43621;51.798;21.588;2023-04-25T04:03:11;98669.24;;;13.16;55.44
57791;BME280;43621;51.798;21.588;2023-04-25T04:07:12;98672.94;;;13.25;55.57
57791;BME280;43621;51.798;21.588;2023-04-25T04:11:13;98670.86;;;13.34;55.74
57791;BME280;43621;51.798;21.588;2023-04-25T04:15:14;98677.55;;;13.35;55.59
57791;BME280;43621;51.798;21.588;2023-04-25T04:19:15;98680.45;;;13.35;55.59
57791;BME280;43621;51.798;21.588;2023-04-25T04:23:16;98679.93;;;13.35;55.66
57791;BME280;43621;51.798;21.588;2023-04-25T04:27:18;98688.39;;;13.39;55.77
57791;BME280;43621;51.798;21.588;2023-04-25T04:31:21;98691.46;;;13.45;55.90
57791;BME280;43621;51.798;21.588;2023-04-25T04:35:23;98694.92;;;13.52;55.82
57791;BME280;43621;51.798;21.588;2023-04-25T04:39:24;98698.61;;;13.58;55.79
57791;BME280;43621;51.798;21.588;2023-04-25T04:43:25;98699.89;;;13.61;55.66
57791;BME280;43621;51.798;21.588;2023-04-25T04:47:27;98693.79;;;13.63;55.58
57791;BME280;43621;51.798;21.588;2023-04-25T04:51:31;98689.23;;;13.65;55.68
57791;BME280;43621;51.798;21.588;2023-04-25T04:55:33;98687.31;;;13.66;55.60
57791;BME280;43621;51.798;21.588;2023-04-25T04:59:34;98686.90;;;13.71;55.60
57791;BME280;43621;51.798;21.588;2023-04-25T05:03:36;98693.09;;;13.76;55.78
57791;BME280;43621;51.798;21.588;2023-04-25T05:07:37;98679.16;;;13.83;55.80
57791;BME280;43621;51.798;21.588;2023-04-25T05:11:38;98677.65;;;13.88;55.75
57791;BME280;43621;51.798;21.588;2023-04-25T05:15:39;98681.09;;;13.92;55.77
57791;BME280;43621;51.798;21.588;2023-04-25T05:19:41;98681.02;;;14.09;55.80
57791;BME280;43621;51.798;21.588;2023-04-25T05:23:45;98680.48;;;14.39;56.00
57791;BME280;43621;51.798;21.588;2023-04-25T05:27:46;98681.25;;;14.67;55.77
57791;BME280;43621;51.798;21.588;2023-04-25T05:31:47;98679.96;;;14.82;55.63
57791;BME280;43621;51.798;21.588;2023-04-25T05:35:49;98682.11;;;14.87;55.43
